Time,TemperatureF,DewpointF,PressureIn,WindDirection,WindDirectionDegrees,WindSpeedMPH,WindSpeedGustMPH,Humidity,HourlyPrecipIn,Conditions,Clouds,dailyrainin,SoftwareType,DateUTC
2015-08-29 00:03:00,63.0,42.0,-100.00,South,187,11.0,16.0,46,-99.99,,,-99.99,,2015-08-29 07:03:00,
2015-08-29 00:12:00,63.0,42.0,-100.00,South,187,11.0,16.0,46,-99.99,,,-99.99,,2015-08-29 07:12:00,
2015-08-29 00:23:00,63.0,42.0,-100.00,South,187,11.0,16.0,46,-99.99,,,-99.99,,2015-08-29 07:23:00,
2015-08-29 00:31:00,62.0,41.0,-100.00,SSW,204,12.0,26.0,46,-99.99,,,-99.99,,2015-08-29 07:31:00,
2015-08-29 00:53:00,62.0,41.0,-100.00,SSW,204,12.0,26.0,46,-99.99,,,-99.99,,2015-08-29 07:53:00,
2015-08-29 01:03:00,62.0,41.0,-100.00,SSW,204,12.0,26.0,46,-99.99,,,-99.99,,2015-08-29 08:03:00,
2015-08-29 01:12:00,62.0,41.0,-100.00,SSW,204,12.0,26.0,46,-99.99,,,-99.99,,2015-08-29 08:12:00,
2015-08-29 01:23:00,62.0,41.0,-100.00,SSW,204,12.0,26.0,46,-99.99,,,-99.99,,2015-08-29 08:23:00,
2015-08-29 01:31:00,62.0,40.0,-100.00,South,183,17.0,31.0,44,-99.99,,,-99.99,,2015-08-29 08:31:00,
2015-08-29 01:54:00,62.0,40.0,-100.00,South,183,17.0,31.0,44,-99.99,,,-99.99,,2015-08-29 08:54:00,
2015-08-29 02:03:00,62.0,40.0,-100.00,South,183,17.0,31.0,44,-99.99,,,-99.99,,2015-08-29 09:03:00,
2015-08-29 02:12:00,62.0,40.0,-100.00,South,183,17.0,31.0,44,-99.99,,,-99.99,,2015-08-29 09:12:00,
2015-08-29 02:23:00,62.0,40.0,-100.00,South,183,17.0,31.0,44,-99.99,,,-99.99,,2015-08-29 09:23:00,
2015-08-29 02:31:00,61.0,40.0,-100.00,South,179,13.0,33.0,46,-99.99,,,-99.99,,2015-08-29 09:31:00,
2015-08-29 02:54:00,61.0,40.0,-100.00,South,179,13.0,33.0,46,-99.99,,,-99.99,,2015-08-29 09:54:00,
2015-08-29 03:03:00,61.0,40.0,-100.00,South,179,13.0,33.0,46,-99.99,,,-99.99,,2015-08-29 10:03:00,
2015-08-29 03:23:00,61.0,40.0,-100.00,South,179,13.0,33.0,46,-99.99,,,-99.99,,2015-08-29 10:23:00,
2015-08-29 03:31:00,59.0,39.0,-100.00,SW,217,16.0,31.0,47,-99.99,,,-99.99,,2015-08-29 10:31:00,
2015-08-29 03:54:00,59.0,39.0,-100.00,SW,217,16.0,31.0,47,-99.99,,,-99.99,,2015-08-29 10:54:00,
2015-08-29 04:03:00,59.0,39.0,-100.00,SW,217,16.0,31.0,47,-99.99,,,-99.99,,2015-08-29 11:03:00,
2015-08-29 04:13:00,59.0,39.0,-100.00,SW,217,16.0,31.0,47,-99.99,,,-99.99,,2015-08-29 11:13:00,
2015-08-29 04:23:00,59.0,39.0,-100.00,SW,217,16.0,31.0,47,-99.99,,,-99.99,,2015-08-29 11:23:00,
2015-08-29 04:31:00,51.0,44.0,-100.00,SW,216,17.0,37.0,77,-99.99,,,-99.99,,2015-08-29 11:31:00,
2015-08-29 04:54:00,51.0,44.0,-100.00,SW,216,17.0,37.0,77,-99.99,,,-99.99,,2015-08-29 11:54:00,
2015-08-29 05:03:00,51.0,44.0,-100.00,SW,216,17.0,37.0,77,-99.99,,,-99.99,,2015-08-29 12:03:00,
2015-08-29 05:13:00,51.0,44.0,-100.00,SW,216,17.0,37.0,77,-99.99,,,-99.99,,2015-08-29 12:13:00,
2015-08-29 05:23:00,51.0,44.0,-100.00,SW,216,17.0,37.0,77,-99.99,,,-99.99,,2015-08-29 12:23:00,
2015-08-29 05:31:00,50.0,48.0,-100.00,SW,228,17.0,26.0,94,-99.99,,,-99.99,,2015-08-29 12:31:00,
2015-08-29 05:54:00,50.0,48.0,-100.00,SW,228,17.0,26.0,94,-99.99,,,-99.99,,2015-08-29 12:54:00,
2015-08-29 06:13:00,50.0,48.0,-100.00,SW,228,17.0,26.0,94,-99.99,,,-99.99,,2015-08-29 13:13:00,
2015-08-29 06:23:00,50.0,48.0,-100.00,SW,228,17.0,26.0,94,-99.99,,,-99.99,,2015-08-29 13:23:00,
2015-08-29 06:31:00,49.0,49.0,-100.00,SW,215,14.0,24.0,99,-99.99,,,-99.99,,2015-08-29 13:31:00,
2015-08-29 07:03:00,49.0,49.0,-100.00,SW,215,14.0,24.0,99,-99.99,,,-99.99,,2015-08-29 14:03:00,
2015-08-29 07:13:00,49.0,49.0,-100.00,SW,215,14.0,24.0,99,-99.99,,,-99.99,,2015-08-29 14:13:00,
2015-08-29 07:23:00,49.0,49.0,-100.00,SW,215,14.0,24.0,99,-99.99,,,-99.99,,2015-08-29 14:23:00,
2015-08-29 07:31:00,48.0,47.0,-100.00,SW,220,15.0,30.0,95,-99.99,,,-99.99,,2015-08-29 14:31:00,
2015-08-29 07:53:00,48.0,47.0,-100.00,SW,220,15.0,30.0,95,-99.99,,,-99.99,,2015-08-29 14:53:00,
2015-08-29 08:03:00,48.0,47.0,-100.00,SW,220,15.0,30.0,95,-99.99,,,-99.99,,2015-08-29 15:03:00,
2015-08-29 08:12:00,48.0,47.0,-100.00,SW,220,15.0,30.0,95,-99.99,,,-99.99,,2015-08-29 15:12:00,
2015-08-29 08:23:00,48.0,47.0,-100.00,SW,220,15.0,30.0,95,-99.99,,,-99.99,,2015-08-29 15:23:00,
2015-08-29 08:31:00,50.0,50.0,-100.00,WSW,241,14.0,27.0,100,-99.99,,,-99.99,,2015-08-29 15:31:00,
2015-08-29 08:54:00,50.0,50.0,-100.00,WSW,241,14.0,27.0,100,-99.99,,,-99.99,,2015-08-29 15:54:00,
2015-08-29 09:14:00,50.0,50.0,-100.00,WSW,241,14.0,27.0,100,-99.99,,,-99.99,,2015-08-29 16:14:00,
2015-08-29 09:23:00,50.0,50.0,-100.00,WSW,241,14.0,27.0,100,-99.99,,,-99.99,,2015-08-29 16:23:00,
2015-08-29 09:31:00,51.0,44.0,-100.00,SW,224,16.0,28.0,78,-99.99,,,-99.99,,2015-08-29 16:31:00,
2015-08-29 09:54:00,51.0,44.0,-100.00,SW,224,16.0,28.0,78,-99.99,,,-99.99,,2015-08-29 16:54:00,
2015-08-29 10:03:00,51.0,44.0,-100.00,SW,224,16.0,28.0,78,-99.99,,,-99.99,,2015-08-29 17:03:00,
2015-08-29 10:13:00,51.0,44.0,-100.00,SW,224,16.0,28.0,78,-99.99,,,-99.99,,2015-08-29 17:13:00,
2015-08-29 10:23:00,51.0,44.0,-100.00,SW,224,16.0,28.0,78,-99.99,,,-99.99,,2015-08-29 17:23:00,
2015-08-29 10:31:00,53.0,43.0,-100.00,SW,216,10.0,23.0,68,-99.99,,,-99.99,,2015-08-29 17:31:00,
2015-08-29 10:54:00,53.0,43.0,-100.00,SW,216,10.0,23.0,68,-99.99,,,-99.99,,2015-08-29 17:54:00,
2015-08-29 11:04:00,53.0,43.0,-100.00,SW,216,10.0,23.0,68,-99.99,,,-99.99,,2015-08-29 18:04:00,
2015-08-29 11:13:00,53.0,43.0,-100.00,SW,216,10.0,23.0,68,-99.99,,,-99.99,,2015-08-29 18:13:00,
2015-08-29 11:23:00,53.0,43.0,-100.00,SW,216,10.0,23.0,68,-99.99,,,-99.99,,2015-08-29 18:23:00,
2015-08-29 11:31:00,58.0,44.0,-100.00,WSW,255,9.0,21.0,59,-99.99,,,-99.99,,2015-08-29 18:31:00,
2015-08-29 11:54:00,58.0,44.0,-100.00,WSW,255,9.0,21.0,59,-99.99,,,-99.99,,2015-08-29 18:54:00,
2015-08-29 12:03:00,58.0,44.0,-100.00,WSW,255,9.0,21.0,59,-99.99,,,-99.99,,2015-08-29 19:03:00,
2015-08-29 12:13:00,58.0,44.0,-100.00,WSW,255,9.0,21.0,59,-99.99,,,-99.99,,2015-08-29 19:13:00,
2015-08-29 12:24:00,58.0,44.0,-100.00,WSW,255,9.0,21.0,59,-99.99,,,-99.99,,2015-08-29 19:24:00,
2015-08-29 12:31:00,59.0,41.0,-100.00,West,278,9.0,20.0,51,-99.99,,,-99.99,,2015-08-29 19:31:00,
2015-08-29 13:03:00,59.0,41.0,-100.00,West,278,9.0,20.0,51,-99.99,,,-99.99,,2015-08-29 20:03:00,
2015-08-29 13:13:00,59.0,41.0,-100.00,West,278,9.0,20.0,51,-99.99,,,-99.99,,2015-08-29 20:13:00,
2015-08-29 13:23:00,59.0,41.0,-100.00,West,278,9.0,20.0,51,-99.99,,,-99.99,,2015-08-29 20:23:00,
2015-08-29 13:31:00,63.0,41.0,-100.00,West,267,9.0,23.0,44,-99.99,,,-99.99,,2015-08-29 20:31:00,
2015-08-29 13:54:00,63.0,41.0,-100.00,West,267,9.0,23.0,44,-99.99,,,-99.99,,2015-08-29 20:54:00,
2015-08-29 14:03:00,63.0,41.0,-100.00,West,267,9.0,23.0,44,-99.99,,,-99.99,,2015-08-29 21:03:00,
2015-08-29 14:13:00,63.0,41.0,-100.00,West,267,9.0,23.0,44,-99.99,,,-99.99,,2015-08-29 21:13:00,
2015-08-29 14:23:00,63.0,41.0,-100.00,West,267,9.0,23.0,44,-99.99,,,-99.99,,2015-08-29 21:23:00,
2015-08-29 14:56:00,63.0,39.0,-100.00,West,269,11.0,23.0,41,-99.99,,,-99.99,,2015-08-29 21:56:00,
2015-08-29 15:04:00,63.0,39.0,-100.00,West,269,11.0,-999.0,41,-99.99,,,-99.99,,2015-08-29 22:04:00,
2015-08-29 15:13:00,63.0,39.0,-100.00,West,269,11.0,23.0,41,-99.99,,,-99.99,,2015-08-29 22:13:00,
2015-08-29 15:23:00,63.0,39.0,-100.00,West,269,11.0,23.0,41,-99.99,,,-99.99,,2015-08-29 22:23:00,